sensor_id;sensor_type;location;lat;lon;timestamp;P1;durP1;ratioP1;P2;durP2;ratioP2
7773;SDS011;3931;42.260;23.116;2022-12-07T00:00:30;45.50;;;18.30;;
7773;SDS011;3931;42.260;23.116;2022-12-07T00:02:57;32.90;;;15.97;;
7773;SDS011;3931;42.260;23.116;2022-12-07T00:05:23;35.00;;;16.87;;
7773;SDS011;3931;42.260;23.116;2022-12-07T00:07:49;26.50;;;14.67;;
7773;SDS011;3931;42.260;23.116;2022-12-07T00:10:15;35.93;;;14.53;;
7773;SDS011;3931;42.260;23.116;2022-12-07T00:12:41;36.50;;;18.20;;
7773;SDS011;3931;42.260;23.116;2022-12-07T00:15:08;43.97;;;21.23;;
7773;SDS011;3931;42.260;23.116;2022-12-07T00:17:34;41.40;;;21.13;;
7773;SDS011;3931;42.260;23.116;2022-12-07T00:20:01;39.87;;;19.40;;
7773;SDS011;3931;42.260;23.116;2022-12-07T00:22:28;42.10;;;20.70;;
7773;SDS011;3931;42.260;23.116;2022-12-07T00:24:54;43.20;;;18.93;;
7773;SDS011;3931;42.260;23.116;2022-12-07T00:27:20;36.30;;;18.00;;
7773;SDS011;3931;42.260;23.116;2022-12-07T00:29:46;31.73;;;15.40;;
7773;SDS011;3931;42.260;23.116;2022-12-07T00:32:12;35.33;;;14.10;;
7773;SDS011;3931;42.260;23.116;2022-12-07T00:34:38;30.20;;;15.40;;
7773;SDS011;3931;42.260;23.116;2022-12-07T00:37:05;29.63;;;13.50;;
7773;SDS011;3931;42.260;23.116;2022-12-07T00:39:31;26.00;;;13.70;;
7773;SDS011;3931;42.260;23.116;2022-12-07T00:41:57;28.30;;;14.23;;
7773;SDS011;3931;42.260;23.116;2022-12-07T00:44:23;29.80;;;13.67;;
7773;SDS011;3931;42.260;23.116;2022-12-07T00:46:49;23.80;;;13.23;;
7773;SDS011;3931;42.260;23.116;2022-12-07T00:49:15;30.27;;;14.70;;
7773;SDS011;3931;42.260;23.116;2022-12-07T00:51:41;27.60;;;14.03;;
7773;SDS011;3931;42.260;23.116;2022-12-07T00:54:08;28.60;;;15.70;;
7773;SDS011;3931;42.260;23.116;2022-12-07T00:56:34;33.83;;;17.10;;
7773;SDS011;3931;42.260;23.116;2022-12-07T00:59:01;32.10;;;15.20;;
7773;SDS011;3931;42.260;23.116;2022-12-07T01:01:29;27.10;;;13.30;;
7773;SDS011;3931;42.260;23.116;2022-12-07T01:03:57;28.93;;;13.70;;
7773;SDS011;3931;42.260;23.116;2022-12-07T01:06:24;31.07;;;14.90;;
7773;SDS011;3931;42.260;23.116;2022-12-07T01:08:51;29.03;;;15.20;;
7773;SDS011;3931;42.260;23.116;2022-12-07T01:11:19;31.00;;;15.23;;
7773;SDS011;3931;42.260;23.116;2022-12-07T01:13:46;28.77;;;15.33;;
7773;SDS011;3931;42.260;23.116;2022-12-07T01:16:15;28.63;;;14.43;;
7773;SDS011;3931;42.260;23.116;2022-12-07T01:18:42;39.80;;;14.80;;
7773;SDS011;3931;42.260;23.116;2022-12-07T01:21:12;33.37;;;14.23;;
7773;SDS011;3931;42.260;23.116;2022-12-07T01:23:40;28.40;;;14.27;;
7773;SDS011;3931;42.260;23.116;2022-12-07T01:26:07;30.43;;;14.50;;
7773;SDS011;3931;42.260;23.116;2022-12-07T01:28:36;33.80;;;14.80;;
7773;SDS011;3931;42.260;23.116;2022-12-07T01:31:04;36.83;;;17.93;;
7773;SDS011;3931;42.260;23.116;2022-12-07T01:33:32;38.43;;;18.27;;
7773;SDS011;3931;42.260;23.116;2022-12-07T01:36:02;53.27;;;19.17;;
7773;SDS011;3931;42.260;23.116;2022-12-07T01:38:29;28.77;;;15.10;;
7773;SDS011;3931;42.260;23.116;2022-12-07T01:40:56;29.50;;;14.60;;
7773;SDS011;3931;42.260;23.116;2022-12-07T01:43:23;24.97;;;14.07;;
7773;SDS011;3931;42.260;23.116;2022-12-07T01:45:51;42.47;;;20.90;;
7773;SDS011;3931;42.260;23.116;2022-12-07T01:48:19;40.63;;;18.57;;
7773;SDS011;3931;42.260;23.116;2022-12-07T01:50:48;46.70;;;22.13;;
7773;SDS011;3931;42.260;23.116;2022-12-07T01:53:17;37.23;;;17.30;;
7773;SDS011;3931;42.260;23.116;2022-12-07T01:55:44;25.40;;;12.97;;
7773;SDS011;3931;42.260;23.116;2022-12-07T01:58:12;26.17;;;13.27;;
7773;SDS011;3931;42.260;23.116;2022-12-07T02:00:41;29.17;;;16.20;;
7773;SDS011;3931;42.260;23.116;2022-12-07T02:03:09;29.23;;;15.03;;
7773;SDS011;3931;42.260;23.116;2022-12-07T02:05:40;37.40;;;17.33;;
7773;SDS011;3931;42.260;23.116;2022-12-07T02:08:08;34.13;;;14.87;;
7773;SDS011;3931;42.260;23.116;2022-12-07T02:10:36;34.47;;;14.50;;
7773;SDS011;3931;42.260;23.116;2022-12-07T02:13:03;30.03;;;15.03;;
7773;SDS011;3931;42.260;23.116;2022-12-07T02:15:37;33.93;;;15.73;;
7773;SDS011;3931;42.260;23.116;2022-12-07T02:18:22;29.43;;;14.37;;
7773;SDS011;3931;42.260;23.116;2022-12-07T02:20:57;29.27;;;15.50;;
7773;SDS011;3931;42.260;23.116;2022-12-07T02:23:41;31.80;;;15.67;;
7773;SDS011;3931;42.260;23.116;2022-12-07T02:29:30;42.80;;;18.27;;
7773;SDS011;3931;42.260;23.116;2022-12-07T02:32:03;33.33;;;17.67;;
7773;SDS011;3931;42.260;23.116;2022-12-07T02:34:37;34.57;;;16.70;;
7773;SDS011;3931;42.260;23.116;2022-12-07T02:37:10;44.30;;;18.03;;
7773;SDS011;3931;42.260;23.116;2022-12-07T02:39:48;52.10;;;19.53;;
7773;SDS011;3931;42.260;23.116;2022-12-07T02:42:20;45.57;;;20.00;;
7773;SDS011;3931;42.260;23.116;2022-12-07T02:44:53;47.50;;;21.77;;
7773;SDS011;3931;42.260;23.116;2022-12-07T02:47:19;60.23;;;22.40;;
7773;SDS011;3931;42.260;23.116;2022-12-07T02:49:47;37.27;;;20.43;;
7773;SDS011;3931;42.260;23.116;2022-12-07T02:52:14;52.50;;;24.07;;
7773;SDS011;3931;42.260;23.116;2022-12-07T02:54:40;52.13;;;20.33;;
7773;SDS011;3931;42.260;23.116;2022-12-07T02:57:11;45.03;;;19.70;;
7773;SDS011;3931;42.260;23.116;2022-12-07T02:59:49;43.93;;;21.30;;
7773;SDS011;3931;42.260;23.116;2022-12-07T03:02:26;33.37;;;16.57;;
7773;SDS011;3931;42.260;23.116;2022-12-07T03:05:01;42.23;;;19.10;;
7773;SDS011;3931;42.260;23.116;2022-12-07T03:07:39;35.60;;;19.13;;
7773;SDS011;3931;42.260;23.116;2022-12-07T03:10:14;27.90;;;14.33;;
7773;SDS011;3931;42.260;23.116;2022-12-07T03:12:49;27.90;;;13.67;;
7773;SDS011;3931;42.260;23.116;2022-12-07T03:15:25;22.37;;;11.80;;
7773;SDS011;3931;42.260;23.116;2022-12-07T03:17:57;18.63;;;10.67;;
7773;SDS011;3931;42.260;23.116;2022-12-07T03:20:26;21.03;;;10.30;;
7773;SDS011;3931;42.260;23.116;2022-12-07T03:22:54;15.70;;;9.50;;
7773;SDS011;3931;42.260;23.116;2022-12-07T03:25:23;19.53;;;11.50;;
7773;SDS011;3931;42.260;23.116;2022-12-07T03:27:51;23.57;;;12.77;;
7773;SDS011;3931;42.260;23.116;2022-12-07T03:30:22;23.63;;;12.30;;
7773;SDS011;3931;42.260;23.116;2022-12-07T03:32:53;28.23;;;13.73;;
7773;SDS011;3931;42.260;23.116;2022-12-07T03:35:26;23.80;;;12.30;;
7773;SDS011;3931;42.260;23.116;2022-12-07T03:37:57;24.50;;;12.23;;
7773;SDS011;3931;42.260;23.116;2022-12-07T03:40:31;34.43;;;20.87;;
7773;SDS011;3931;42.260;23.116;2022-12-07T03:43:00;31.60;;;16.37;;
7773;SDS011;3931;42.260;23.116;2022-12-07T03:45:31;30.60;;;15.50;;
7773;SDS011;3931;42.260;23.116;2022-12-07T03:48:03;28.33;;;15.03;;
7773;SDS011;3931;42.260;23.116;2022-12-07T03:50:36;40.80;;;17.17;;
7773;SDS011;3931;42.260;23.116;2022-12-07T03:53:08;45.60;;;22.27;;
7773;SDS011;3931;42.260;23.116;2022-12-07T03:55:39;46.77;;;19.93;;
7773;SDS011;3931;42.260;23.116;2022-12-07T03:58:10;43.00;;;19.20;;
7773;SDS011;3931;42.260;23.116;2022-12-07T04:00:38;37.10;;;18.17;;
7773;SDS011;3931;42.260;23.116;2022-12-07T04:03:06;32.37;;;16.77;;
7773;SDS011;3931;42.260;23.116;2022-12-07T04:05:33;30.80;;;16.23;;
7773;SDS011;3931;42.260;23.116;2022-12-07T04:07:59;33.03;;;13.90;;
7773;SDS011;3931;42.260;23.116;2022-12-07T04:10:25;36.00;;;18.40;;
7773;SDS011;3931;42.260;23.116;2022-12-07T04:12:51;32.87;;;17.87;;
7773;SDS011;3931;42.260;23.116;2022-12-07T04:15:17;35.97;;;16.27;;
7773;SDS011;3931;42.260;23.116;2022-12-07T04:17:44;31.07;;;15.33;;
7773;SDS011;3931;42.260;23.116;2022-12-07T04:20:11;27.23;;;13.80;;
7773;SDS011;3931;42.260;23.116;2022-12-07T04:22:38;30.30;;;14.63;;
7773;SDS011;3931;42.260;23.116;2022-12-07T04:25:04;28.73;;;16.07;;
7773;SDS011;3931;42.260;23.116;2022-12-07T04:27:31;34.70;;;16.83;;
7773;SDS011;3931;42.260;23.116;2022-12-07T04:29:57;41.20;;;20.30;;
7773;SDS011;3931;42.260;23.116;2022-12-07T04:32:23;46.57;;;23.10;;
7773;SDS011;3931;42.260;23.116;2022-12-07T04:34:50;42.47;;;22.43;;
7773;SDS011;3931;42.260;23.116;2022-12-07T04:37:16;50.87;;;24.30;;
7773;SDS011;3931;42.260;23.116;2022-12-07T04:39:43;50.37;;;23.50;;
7773;SDS011;3931;42.260;23.116;2022-12-07T04:42:09;62.67;;;29.93;;
7773;SDS011;3931;42.260;23.116;2022-12-07T04:44:36;61.93;;;31.00;;
7773;SDS011;3931;42.260;23.116;2022-12-07T04:47:02;49.40;;;26.73;;
7773;SDS011;3931;42.260;23.116;2022-12-07T04:49:28;84.70;;;33.77;;
7773;SDS011;3931;42.260;23.116;2022-12-07T04:51:55;243.73;;;70.57;;
7773;SDS011;3931;42.260;23.116;2022-12-07T04:54:21;237.40;;;65.40;;
7773;SDS011;3931;42.260;23.116;2022-12-07T04:56:48;236.23;;;61.60;;
7773;SDS011;3931;42.260;23.116;2022-12-07T04:59:14;478.10;;;132.77;;
7773;SDS011;3931;42.260;23.116;2022-12-07T05:01:41;449.10;;;122.63;;
7773;SDS011;3931;42.260;23.116;2022-12-07T05:04:07;176.60;;;52.03;;
7773;SDS011;3931;42.260;23.116;2022-12-07T05:06:34;92.07;;;34.43;;
7773;SDS011;3931;42.260;23.116;2022-12-07T05:09:01;59.77;;;28.10;;
7773;SDS011;3931;42.260;23.116;2022-12-07T05:11:28;60.10;;;26.43;;
7773;SDS011;3931;42.260;23.116;2022-12-07T05:14:04;74.30;;;35.03;;
7773;SDS011;3931;42.260;23.116;2022-12-07T05:16:31;65.97;;;32.93;;
7773;SDS011;3931;42.260;23.116;2022-12-07T05:18:57;82.90;;;39.20;;
7773;SDS011;3931;42.260;23.116;2022-12-07T05:21:23;65.70;;;31.83;;
7773;SDS011;3931;42.260;23.116;2022-12-07T05:23:50;163.67;;;71.23;;
7773;SDS011;3931;42.260;23.116;2022-12-07T05:26:16;82.50;;;36.60;;
7773;SDS011;3931;42.260;23.116;2022-12-07T05:28:43;46.90;;;22.70;;
7773;SDS011;3931;42.260;23.116;2022-12-07T05:31:09;28.10;;;14.27;;
7773;SDS011;3931;42.260;23.116;2022-12-07T05:33:35;29.40;;;15.97;;
7773;SDS011;3931;42.260;23.116;2022-12-07T05:36:01;49.97;;;25.13;;
7773;SDS011;3931;42.260;23.116;2022-12-07T05:38:30;41.43;;;23.10;;
7773;SDS011;3931;42.260;23.116;2022-12-07T05:40:59;55.07;;;22.83;;
7773;SDS011;3931;42.260;23.116;2022-12-07T05:43:27;55.60;;;34.60;;
7773;SDS011;3931;42.260;23.116;2022-12-07T05:45:53;49.97;;;27.17;;
7773;SDS011;3931;42.260;23.116;2022-12-07T05:48:19;52.43;;;23.60;;
7773;SDS011;3931;42.260;23.116;2022-12-07T05:50:47;50.70;;;27.77;;
7773;SDS011;3931;42.260;23.116;2022-12-07T05:53:13;66.43;;;33.40;;
7773;SDS011;3931;42.260;23.116;2022-12-07T05:55:39;66.60;;;32.90;;
7773;SDS011;3931;42.260;23.116;2022-12-07T05:58:05;71.30;;;34.00;;
7773;SDS011;3931;42.260;23.116;2022-12-07T06:00:50;68.37;;;36.30;;
7773;SDS011;3931;42.260;23.116;2022-12-07T06:03:16;78.80;;;35.73;;
7773;SDS011;3931;42.260;23.116;2022-12-07T06:05:42;137.10;;;52.47;;
7773;SDS011;3931;42.260;23.116;2022-12-07T06:08:08;81.23;;;36.47;;
7773;SDS011;3931;42.260;23.116;2022-12-07T06:10:35;159.53;;;61.73;;
7773;SDS011;3931;42.260;23.116;2022-12-07T06:13:01;83.60;;;38.80;;
7773;SDS011;3931;42.260;23.116;2022-12-07T06:15:26;75.57;;;37.20;;
7773;SDS011;3931;42.260;23.116;2022-12-07T06:17:53;109.47;;;50.10;;
7773;SDS011;3931;42.260;23.116;2022-12-07T06:20:19;81.90;;;39.80;;
7773;SDS011;3931;42.260;23.116;2022-12-07T06:22:45;48.57;;;25.03;;
7773;SDS011;3931;42.260;23.116;2022-12-07T06:25:11;66.53;;;30.60;;
7773;SDS011;3931;42.260;23.116;2022-12-07T06:27:38;71.13;;;43.37;;
7773;SDS011;3931;42.260;23.116;2022-12-07T06:30:04;57.50;;;34.57;;
7773;SDS011;3931;42.260;23.116;2022-12-07T06:32:31;74.00;;;38.67;;
7773;SDS011;3931;42.260;23.116;2022-12-07T06:34:59;88.70;;;45.30;;
7773;SDS011;3931;42.260;23.116;2022-12-07T06:37:25;84.37;;;45.10;;
7773;SDS011;3931;42.260;23.116;2022-12-07T06:39:52;118.27;;;49.93;;
7773;SDS011;3931;42.260;23.116;2022-12-07T06:42:18;46.63;;;27.13;;
7773;SDS011;3931;42.260;23.116;2022-12-07T06:44:44;34.90;;;16.47;;
7773;SDS011;3931;42.260;23.116;2022-12-07T06:47:10;29.90;;;17.00;;
7773;SDS011;3931;42.260;23.116;2022-12-07T06:49:36;32.23;;;18.37;;
7773;SDS011;3931;42.260;23.116;2022-12-07T06:52:03;39.30;;;18.27;;
7773;SDS011;3931;42.260;23.116;2022-12-07T06:54:30;33.40;;;19.53;;
7773;SDS011;3931;42.260;23.116;2022-12-07T06:56:57;43.90;;;21.67;;
7773;SDS011;3931;42.260;23.116;2022-12-07T06:59:23;66.33;;;31.50;;
7773;SDS011;3931;42.260;23.116;2022-12-07T07:01:49;61.23;;;33.47;;
7773;SDS011;3931;42.260;23.116;2022-12-07T07:04:15;61.23;;;31.47;;
7773;SDS011;3931;42.260;23.116;2022-12-07T07:06:41;60.33;;;31.33;;
7773;SDS011;3931;42.260;23.116;2022-12-07T07:09:08;56.73;;;28.73;;
7773;SDS011;3931;42.260;23.116;2022-12-07T07:11:34;53.93;;;28.00;;
7773;SDS011;3931;42.260;23.116;2022-12-07T07:14:00;67.50;;;27.90;;
7773;SDS011;3931;42.260;23.116;2022-12-07T07:16:27;60.40;;;27.73;;
7773;SDS011;3931;42.260;23.116;2022-12-07T07:18:54;39.37;;;22.57;;
7773;SDS011;3931;42.260;23.116;2022-12-07T07:21:20;51.07;;;24.73;;
7773;SDS011;3931;42.260;23.116;2022-12-07T07:23:46;44.53;;;21.80;;
7773;SDS011;3931;42.260;23.116;2022-12-07T07:26:13;52.17;;;20.40;;
7773;SDS011;3931;42.260;23.116;2022-12-07T07:28:39;41.37;;;21.27;;
7773;SDS011;3931;42.260;23.116;2022-12-07T07:31:05;62.20;;;26.03;;
7773;SDS011;3931;42.260;23.116;2022-12-07T07:33:32;52.93;;;27.47;;
7773;SDS011;3931;42.260;23.116;2022-12-07T07:35:58;55.60;;;27.37;;
7773;SDS011;3931;42.260;23.116;2022-12-07T07:38:24;59.73;;;22.57;;
7773;SDS011;3931;42.260;23.116;2022-12-07T07:40:50;46.37;;;22.50;;
7773;SDS011;3931;42.260;23.116;2022-12-07T07:43:17;31.23;;;17.40;;
7773;SDS011;3931;42.260;23.116;2022-12-07T07:45:43;47.80;;;24.00;;
7773;SDS011;3931;42.260;23.116;2022-12-07T07:48:09;40.73;;;22.07;;
7773;SDS011;3931;42.260;23.116;2022-12-07T07:50:35;48.03;;;21.60;;
7773;SDS011;3931;42.260;23.116;2022-12-07T07:53:02;42.30;;;19.10;;
7773;SDS011;3931;42.260;23.116;2022-12-07T07:55:28;34.50;;;17.27;;
7773;SDS011;3931;42.260;23.116;2022-12-07T07:57:54;37.77;;;18.67;;
7773;SDS011;3931;42.260;23.116;2022-12-07T08:00:21;69.57;;;25.40;;
7773;SDS011;3931;42.260;23.116;2022-12-07T08:02:48;56.27;;;18.57;;
7773;SDS011;3931;42.260;23.116;2022-12-07T08:05:14;30.03;;;16.23;;
7773;SDS011;3931;42.260;23.116;2022-12-07T08:07:40;24.40;;;13.20;;
7773;SDS011;3931;42.260;23.116;2022-12-07T08:10:08;26.80;;;14.03;;
7773;SDS011;3931;42.260;23.116;2022-12-07T08:12:36;25.80;;;14.10;;
7773;SDS011;3931;42.260;23.116;2022-12-07T08:15:24;24.00;;;14.10;;
7773;SDS011;3931;42.260;23.116;2022-12-07T08:17:51;24.40;;;14.27;;
7773;SDS011;3931;42.260;23.116;2022-12-07T08:20:17;25.50;;;15.00;;
7773;SDS011;3931;42.260;23.116;2022-12-07T08:22:43;33.17;;;13.70;;
7773;SDS011;3931;42.260;23.116;2022-12-07T08:25:09;30.40;;;15.10;;
7773;SDS011;3931;42.260;23.116;2022-12-07T08:27:35;19.93;;;12.83;;
7773;SDS011;3931;42.260;23.116;2022-12-07T08:30:01;34.80;;;15.93;;
7773;SDS011;3931;42.260;23.116;2022-12-07T08:32:28;21.57;;;11.77;;
7773;SDS011;3931;42.260;23.116;2022-12-07T08:34:55;24.20;;;11.80;;
7773;SDS011;3931;42.260;23.116;2022-12-07T08:37:21;16.53;;;11.40;;
7773;SDS011;3931;42.260;23.116;2022-12-07T08:39:47;22.20;;;12.33;;
7773;SDS011;3931;42.260;23.116;2022-12-07T08:42:13;20.10;;;11.63;;
7773;SDS011;3931;42.260;23.116;2022-12-07T08:44:39;16.70;;;10.60;;
7773;SDS011;3931;42.260;23.116;2022-12-07T08:47:05;21.37;;;9.57;;
7773;SDS011;3931;42.260;23.116;2022-12-07T08:49:35;20.40;;;9.77;;
7773;SDS011;3931;42.260;23.116;2022-12-07T08:52:04;19.27;;;9.80;;
7773;SDS011;3931;42.260;23.116;2022-12-07T08:54:30;18.03;;;9.87;;
7773;SDS011;3931;42.260;23.116;2022-12-07T08:57:00;19.70;;;10.97;;
7773;SDS011;3931;42.260;23.116;2022-12-07T08:59:26;20.97;;;8.93;;
7773;SDS011;3931;42.260;23.116;2022-12-07T09:01:54;19.50;;;9.60;;
7773;SDS011;3931;42.260;23.116;2022-12-07T09:04:20;19.87;;;10.77;;
7773;SDS011;3931;42.260;23.116;2022-12-07T09:06:47;26.17;;;12.90;;
7773;SDS011;3931;42.260;23.116;2022-12-07T09:09:13;24.17;;;11.47;;
7773;SDS011;3931;42.260;23.116;2022-12-07T09:11:40;22.37;;;11.93;;
7773;SDS011;3931;42.260;23.116;2022-12-07T09:14:06;33.87;;;14.37;;
7773;SDS011;3931;42.260;23.116;2022-12-07T09:16:32;21.17;;;12.57;;
7773;SDS011;3931;42.260;23.116;2022-12-07T09:18:58;22.57;;;11.13;;
7773;SDS011;3931;42.260;23.116;2022-12-07T09:21:24;24.20;;;13.20;;
7773;SDS011;3931;42.260;23.116;2022-12-07T09:23:51;25.53;;;11.43;;
7773;SDS011;3931;42.260;23.116;2022-12-07T09:26:17;28.10;;;13.30;;
7773;SDS011;3931;42.260;23.116;2022-12-07T09:28:43;24.03;;;11.57;;
7773;SDS011;3931;42.260;23.116;2022-12-07T09:31:09;22.70;;;11.93;;
7773;SDS011;3931;42.260;23.116;2022-12-07T09:33:35;19.07;;;9.93;;
7773;SDS011;3931;42.260;23.116;2022-12-07T09:36:03;20.53;;;10.90;;
7773;SDS011;3931;42.260;23.116;2022-12-07T09:38:29;40.80;;;13.53;;
7773;SDS011;3931;42.260;23.116;2022-12-07T09:40:57;37.13;;;12.63;;
7773;SDS011;3931;42.260;23.116;2022-12-07T09:43:23;34.17;;;13.00;;
7773;SDS011;3931;42.260;23.116;2022-12-07T09:45:52;31.60;;;14.50;;
7773;SDS011;3931;42.260;23.116;2022-12-07T09:48:21;29.90;;;12.40;;
7773;SDS011;3931;42.260;23.116;2022-12-07T09:50:50;24.53;;;13.67;;
7773;SDS011;3931;42.260;23.116;2022-12-07T09:53:20;12.70;;;7.50;;
7773;SDS011;3931;42.260;23.116;2022-12-07T09:55:51;11.93;;;7.60;;
7773;SDS011;3931;42.260;23.116;2022-12-07T09:58:20;17.33;;;7.50;;
7773;SDS011;3931;42.260;23.116;2022-12-07T10:00:48;19.73;;;7.40;;
7773;SDS011;3931;42.260;23.116;2022-12-07T10:03:15;15.60;;;7.77;;
7773;SDS011;3931;42.260;23.116;2022-12-07T10:05:43;15.60;;;6.30;;
7773;SDS011;3931;42.260;23.116;2022-12-07T10:08:13;12.50;;;7.23;;
7773;SDS011;3931;42.260;23.116;2022-12-07T10:10:41;11.67;;;5.17;;
7773;SDS011;3931;42.260;23.116;2022-12-07T10:13:07;18.80;;;5.50;;
7773;SDS011;3931;42.260;23.116;2022-12-07T10:18:28;14.10;;;6.20;;
7773;SDS011;3931;42.260;23.116;2022-12-07T10:23:58;14.50;;;4.60;;
7773;SDS011;3931;42.260;23.116;2022-12-07T10:26:27;15.47;;;6.00;;
7773;SDS011;3931;42.260;23.116;2022-12-07T10:28:59;14.53;;;6.77;;
7773;SDS011;3931;42.260;23.116;2022-12-07T10:31:26;17.67;;;6.73;;
7773;SDS011;3931;42.260;23.116;2022-12-07T10:33:54;12.97;;;4.90;;
7773;SDS011;3931;42.260;23.116;2022-12-07T10:36:23;18.20;;;5.23;;
7773;SDS011;3931;42.260;23.116;2022-12-07T10:38:52;12.47;;;5.07;;
7773;SDS011;3931;42.260;23.116;2022-12-07T10:41:19;13.20;;;5.10;;
7773;SDS011;3931;42.260;23.116;2022-12-07T10:43:52;14.20;;;6.70;;
7773;SDS011;3931;42.260;23.116;2022-12-07T10:46:24;14.87;;;5.67;;
7773;SDS011;3931;42.260;23.116;2022-12-07T10:49:18;11.60;;;5.20;;
7773;SDS011;3931;42.260;23.116;2022-12-07T10:52:03;6.23;;;4.07;;
7773;SDS011;3931;42.260;23.116;2022-12-07T10:54:42;13.47;;;4.63;;
7773;SDS011;3931;42.260;23.116;2022-12-07T10:57:20;10.87;;;5.50;;
7773;SDS011;3931;42.260;23.116;2022-12-07T11:00:07;16.20;;;7.57;;
7773;SDS011;3931;42.260;23.116;2022-12-07T11:02:46;12.40;;;5.20;;
7773;SDS011;3931;42.260;23.116;2022-12-07T11:05:24;15.17;;;6.00;;
7773;SDS011;3931;42.260;23.116;2022-12-07T11:07:58;8.97;;;4.93;;
7773;SDS011;3931;42.260;23.116;2022-12-07T11:10:37;10.80;;;6.17;;
7773;SDS011;3931;42.260;23.116;2022-12-07T11:13:20;16.83;;;7.97;;
7773;SDS011;3931;42.260;23.116;2022-12-07T11:18:39;10.90;;;5.60;;
7773;SDS011;3931;42.260;23.116;2022-12-07T11:21:17;46.30;;;14.17;;
7773;SDS011;3931;42.260;23.116;2022-12-07T11:23:52;49.10;;;16.13;;
7773;SDS011;3931;42.260;23.116;2022-12-07T11:26:25;88.90;;;33.40;;
7773;SDS011;3931;42.260;23.116;2022-12-07T11:29:03;8.67;;;4.00;;
7773;SDS011;3931;42.260;23.116;2022-12-07T11:31:46;6.73;;;3.20;;
7773;SDS011;3931;42.260;23.116;2022-12-07T11:34:23;12.10;;;4.83;;
7773;SDS011;3931;42.260;23.116;2022-12-07T11:36:56;9.00;;;4.27;;
7773;SDS011;3931;42.260;23.116;2022-12-07T11:39:25;8.93;;;3.93;;
7773;SDS011;3931;42.260;23.116;2022-12-07T11:41:55;7.77;;;3.70;;
7773;SDS011;3931;42.260;23.116;2022-12-07T11:44:29;8.67;;;4.30;;
7773;SDS011;3931;42.260;23.116;2022-12-07T11:47:01;12.90;;;3.63;;
7773;SDS011;3931;42.260;23.116;2022-12-07T11:49:37;8.17;;;4.80;;
7773;SDS011;3931;42.260;23.116;2022-12-07T11:52:11;13.23;;;4.10;;
7773;SDS011;3931;42.260;23.116;2022-12-07T11:54:43;11.03;;;4.80;;
7773;SDS011;3931;42.260;23.116;2022-12-07T11:57:12;13.73;;;3.87;;
7773;SDS011;3931;42.260;23.116;2022-12-07T11:59:44;10.60;;;4.63;;
7773;SDS011;3931;42.260;23.116;2022-12-07T12:02:15;6.47;;;3.70;;
7773;SDS011;3931;42.260;23.116;2022-12-07T12:04:49;24.60;;;4.77;;
7773;SDS011;3931;42.260;23.116;2022-12-07T12:07:21;11.73;;;4.30;;
7773;SDS011;3931;42.260;23.116;2022-12-07T12:09:51;8.03;;;4.23;;
7773;SDS011;3931;42.260;23.116;2022-12-07T12:12:23;8.20;;;4.60;;
7773;SDS011;3931;42.260;23.116;2022-12-07T12:15:15;6.20;;;3.93;;
7773;SDS011;3931;42.260;23.116;2022-12-07T12:21:00;27.63;;;13.20;;
7773;SDS011;3931;42.260;23.116;2022-12-07T12:23:33;13.63;;;4.60;;
7773;SDS011;3931;42.260;23.116;2022-12-07T12:26:05;48.87;;;16.53;;
7773;SDS011;3931;42.260;23.116;2022-12-07T12:28:35;34.77;;;13.33;;
7773;SDS011;3931;42.260;23.116;2022-12-07T12:31:09;10.83;;;4.50;;
7773;SDS011;3931;42.260;23.116;2022-12-07T12:33:38;25.17;;;10.70;;
7773;SDS011;3931;42.260;23.116;2022-12-07T12:36:26;14.83;;;7.47;;
7773;SDS011;3931;42.260;23.116;2022-12-07T12:39:11;16.13;;;7.93;;
7773;SDS011;3931;42.260;23.116;2022-12-07T12:41:55;14.27;;;5.70;;
7773;SDS011;3931;42.260;23.116;2022-12-07T12:47:40;13.90;;;6.97;;
7773;SDS011;3931;42.260;23.116;2022-12-07T12:50:31;11.40;;;4.60;;
7773;SDS011;3931;42.260;23.116;2022-12-07T12:53:03;8.60;;;4.47;;
7773;SDS011;3931;42.260;23.116;2022-12-07T12:55:48;4.53;;;3.40;;
7773;SDS011;3931;42.260;23.116;2022-12-07T12:58:43;7.50;;;4.50;;
7773;SDS011;3931;42.260;23.116;2022-12-07T13:04:23;11.00;;;3.10;;
7773;SDS011;3931;42.260;23.116;2022-12-07T13:06:56;10.53;;;5.20;;
7773;SDS011;3931;42.260;23.116;2022-12-07T13:09:23;12.00;;;5.57;;
7773;SDS011;3931;42.260;23.116;2022-12-07T13:11:57;10.03;;;5.70;;
7773;SDS011;3931;42.260;23.116;2022-12-07T13:14:40;23.80;;;8.23;;
7773;SDS011;3931;42.260;23.116;2022-12-07T13:20:40;70.30;;;25.57;;
7773;SDS011;3931;42.260;23.116;2022-12-07T13:23:09;33.70;;;13.83;;
7773;SDS011;3931;42.260;23.116;2022-12-07T13:25:37;62.70;;;26.20;;
7773;SDS011;3931;42.260;23.116;2022-12-07T13:28:13;39.50;;;18.10;;
7773;SDS011;3931;42.260;23.116;2022-12-07T13:30:45;15.90;;;7.03;;
7773;SDS011;3931;42.260;23.116;2022-12-07T13:33:17;11.80;;;5.40;;
7773;SDS011;3931;42.260;23.116;2022-12-07T13:35:44;14.73;;;5.80;;
7773;SDS011;3931;42.260;23.116;2022-12-07T13:38:21;11.33;;;7.00;;
7773;SDS011;3931;42.260;23.116;2022-12-07T13:41:01;12.57;;;6.20;;
7773;SDS011;3931;42.260;23.116;2022-12-07T13:43:42;15.13;;;7.10;;
7773;SDS011;3931;42.260;23.116;2022-12-07T13:46:09;11.43;;;8.13;;
7773;SDS011;3931;42.260;23.116;2022-12-07T13:48:43;19.60;;;7.37;;
7773;SDS011;3931;42.260;23.116;2022-12-07T13:51:16;17.10;;;8.10;;
7773;SDS011;3931;42.260;23.116;2022-12-07T13:53:45;16.27;;;8.57;;
7773;SDS011;3931;42.260;23.116;2022-12-07T13:56:14;12.70;;;7.10;;
7773;SDS011;3931;42.260;23.116;2022-12-07T13:58:40;16.07;;;8.47;;
7773;SDS011;3931;42.260;23.116;2022-12-07T14:01:07;18.83;;;8.20;;
7773;SDS011;3931;42.260;23.116;2022-12-07T14:03:34;18.40;;;7.63;;
7773;SDS011;3931;42.260;23.116;2022-12-07T14:06:06;21.63;;;6.40;;
7773;SDS011;3931;42.260;23.116;2022-12-07T14:08:41;8.47;;;5.60;;
7773;SDS011;3931;42.260;23.116;2022-12-07T14:11:07;19.40;;;8.80;;
7773;SDS011;3931;42.260;23.116;2022-12-07T14:13:39;26.50;;;8.70;;
7773;SDS011;3931;42.260;23.116;2022-12-07T14:16:22;21.93;;;10.73;;
7773;SDS011;3931;42.260;23.116;2022-12-07T14:18:50;27.90;;;11.87;;
7773;SDS011;3931;42.260;23.116;2022-12-07T14:21:17;23.90;;;10.90;;
7773;SDS011;3931;42.260;23.116;2022-12-07T14:23:44;28.43;;;12.83;;
7773;SDS011;3931;42.260;23.116;2022-12-07T14:26:11;21.37;;;12.13;;
7773;SDS011;3931;42.260;23.116;2022-12-07T14:28:40;27.17;;;11.30;;
7773;SDS011;3931;42.260;23.116;2022-12-07T14:31:09;19.73;;;9.70;;
7773;SDS011;3931;42.260;23.116;2022-12-07T14:33:38;26.70;;;13.40;;
7773;SDS011;3931;42.260;23.116;2022-12-07T14:36:05;29.40;;;10.90;;
7773;SDS011;3931;42.260;23.116;2022-12-07T14:38:31;25.23;;;12.63;;
7773;SDS011;3931;42.260;23.116;2022-12-07T14:40:57;35.03;;;15.40;;
7773;SDS011;3931;42.260;23.116;2022-12-07T14:43:44;39.90;;;14.10;;
7773;SDS011;3931;42.260;23.116;2022-12-07T14:46:10;27.47;;;13.70;;
7773;SDS011;3931;42.260;23.116;2022-12-07T14:48:36;35.40;;;15.20;;
7773;SDS011;3931;42.260;23.116;2022-12-07T14:51:03;34.83;;;14.20;;
7773;SDS011;3931;42.260;23.116;2022-12-07T14:53:31;35.23;;;14.87;;
7773;SDS011;3931;42.260;23.116;2022-12-07T14:56:01;41.37;;;16.77;;
7773;SDS011;3931;42.260;23.116;2022-12-07T14:58:27;28.40;;;14.50;;
7773;SDS011;3931;42.260;23.116;2022-12-07T15:00:54;28.07;;;13.13;;
7773;SDS011;3931;42.260;23.116;2022-12-07T15:03:20;42.10;;;17.30;;
7773;SDS011;3931;42.260;23.116;2022-12-07T15:05:46;57.80;;;21.70;;
7773;SDS011;3931;42.260;23.116;2022-12-07T15:08:12;36.10;;;16.80;;
7773;SDS011;3931;42.260;23.116;2022-12-07T15:10:38;35.20;;;16.30;;
7773;SDS011;3931;42.260;23.116;2022-12-07T15:13:05;32.10;;;14.53;;
7773;SDS011;3931;42.260;23.116;2022-12-07T15:15:51;26.03;;;11.70;;